createdAt,value
2018-07-25T00:00:45.636Z,93.0
2018-07-25T00:01:46.349Z,92.9
2018-07-25T00:02:47.091Z,92.2
2018-07-25T00:03:47.812Z,92.7
2018-07-25T00:04:48.560Z,92.7
2018-07-25T00:05:49.277Z,91.8
2018-07-25T00:06:50.001Z,92.1
2018-07-25T00:07:50.783Z,91.6
2018-07-25T00:08:51.517Z,90.9
2018-07-25T00:09:52.667Z,91.0
2018-07-25T00:10:53.384Z,90.6
2018-07-25T00:11:54.102Z,91.1
2018-07-25T00:12:54.884Z,90.8
2018-07-25T00:13:55.727Z,91.1
2018-07-25T00:14:56.614Z,90.9
2018-07-25T00:15:57.378Z,91.0
2018-07-25T00:16:58.462Z,90.1
2018-07-25T00:17:59.213Z,90.6
2018-07-25T00:19:00.109Z,90.4
2018-07-25T00:20:00.864Z,89.9
2018-07-25T00:21:01.659Z,90.2
2018-07-25T00:22:02.935Z,90.3
2018-07-25T00:23:03.736Z,90.3
2018-07-25T00:24:04.668Z,90.1
2018-07-25T00:25:05.418Z,90.3
2018-07-25T00:26:06.150Z,90.3
2018-07-25T00:27:07.381Z,89.5
2018-07-25T00:28:08.133Z,89.4
2018-07-25T00:29:09.194Z,88.4
2018-07-25T00:30:09.945Z,89.1
2018-07-25T00:31:10.796Z,88.8
2018-07-25T00:32:11.556Z,88.3
2018-07-25T00:33:12.319Z,88.5
2018-07-25T00:34:13.218Z,88.7
2018-07-25T00:35:14.442Z,88.7
2018-07-25T00:36:15.274Z,88.6
2018-07-25T00:37:16.130Z,87.3
2018-07-25T00:38:16.913Z,87.6
2018-07-25T00:39:17.667Z,87.4
2018-07-25T00:40:18.463Z,88.1
2018-07-25T00:41:19.355Z,87.8
2018-07-25T00:42:20.219Z,87.3
2018-07-25T00:43:20.997Z,86.6
2018-07-25T00:44:21.749Z,87.2
2018-07-25T00:45:22.542Z,87.0
2018-07-25T00:46:23.346Z,87.7
2018-07-25T00:47:24.082Z,87.1
2018-07-25T00:48:24.794Z,87.1
2018-07-25T00:49:25.550Z,87.0
2018-07-25T00:50:26.289Z,86.9
2018-07-25T00:51:27.375Z,87.0
2018-07-25T00:52:28.098Z,86.3
2018-07-25T00:53:28.849Z,86.1
2018-07-25T00:54:29.565Z,86.8
2018-07-25T00:55:30.614Z,85.4
2018-07-25T00:56:31.275Z,86.2
2018-07-25T00:57:32.005Z,85.7
2018-07-25T00:58:32.733Z,85.8
2018-07-25T00:59:33.702Z,85.1
2018-07-25T01:00:34.454Z,84.9
2018-07-25T01:01:35.180Z,84.6
2018-07-25T01:02:35.906Z,84.3
2018-07-25T01:03:36.693Z,84.1
2018-07-25T01:04:37.413Z,83.5
2018-07-25T01:05:38.139Z,83.5
2018-07-25T01:06:38.871Z,83.6
2018-07-25T01:07:39.590Z,83.9
2018-07-25T01:08:40.331Z,84.2
2018-07-25T01:09:41.049Z,83.6
2018-07-25T01:10:42.020Z,83.7
2018-07-25T01:11:42.746Z,83.5
2018-07-25T01:12:43.525Z,83.7
2018-07-25T01:13:44.242Z,84.1
2018-07-25T01:14:44.975Z,83.7
2018-07-25T01:15:45.705Z,83.5
2018-07-25T01:16:46.440Z,82.9
2018-07-25T01:17:47.176Z,83.3
2018-07-25T01:18:48.145Z,83.3
2018-07-25T01:19:48.866Z,82.9
2018-07-25T01:20:49.594Z,82.9
2018-07-25T01:21:50.317Z,83.1
2018-07-25T01:22:51.292Z,82.7
2018-07-25T01:23:52.020Z,82.3
2018-07-25T01:24:52.793Z,81.6
2018-07-25T01:25:53.530Z,82.8
2018-07-25T01:26:54.247Z,82.5
2018-07-25T01:27:54.976Z,82.6
2018-07-25T01:28:55.699Z,82.5
2018-07-25T01:29:56.992Z,82.0
2018-07-25T01:30:57.713Z,81.8
2018-07-25T01:31:58.436Z,82.8
2018-07-25T01:32:59.412Z,82.3
2018-07-25T01:34:00.130Z,83.1
2018-07-25T01:35:00.863Z,80.5
2018-07-25T01:36:02.115Z,81.3
2018-07-25T01:37:02.834Z,80.6
2018-07-25T01:38:03.550Z,81.9
2018-07-25T01:39:04.271Z,82.0
2018-07-25T01:40:05.018Z,80.9
2018-07-25T01:41:05.993Z,80.5
2018-07-25T01:42:06.700Z,80.9
2018-07-25T01:43:07.427Z,80.7
2018-07-25T01:44:08.150Z,80.2
2018-07-25T01:45:08.885Z,81.6
2018-07-25T01:46:09.600Z,82.1
2018-07-25T01:47:10.334Z,80.5
2018-07-25T01:48:11.055Z,81.2
2018-07-25T01:49:11.784Z,81.4
2018-07-25T01:50:12.764Z,81.8
2018-07-25T01:51:13.493Z,80.8
2018-07-25T01:52:14.213Z,79.9
2018-07-25T01:53:14.934Z,80.1
2018-07-25T01:54:15.650Z,80.2
2018-07-25T01:55:16.377Z,80.8
2018-07-25T01:56:17.106Z,80.8
2018-07-25T01:57:17.817Z,81.8
2018-07-25T01:58:18.542Z,81.9
2018-07-25T01:59:19.274Z,81.9
2018-07-25T02:00:20.005Z,82.0
2018-07-25T02:01:20.751Z,80.4
2018-07-25T02:02:21.466Z,80.9
2018-07-25T02:03:22.194Z,79.9
2018-07-25T02:04:22.918Z,80.2
2018-07-25T02:05:23.637Z,79.6
2018-07-25T02:06:24.354Z,81.0
2018-07-25T02:07:25.082Z,82.0
2018-07-25T02:08:25.812Z,82.7
2018-07-25T02:09:26.584Z,82.8
2018-07-25T02:10:27.317Z,81.9
2018-07-25T02:11:28.029Z,81.3
2018-07-25T02:12:28.759Z,81.5
2018-07-25T02:13:29.733Z,81.2
2018-07-25T02:14:30.808Z,79.1
2018-07-25T02:15:31.545Z,79.7
2018-07-25T02:16:32.269Z,79.4
2018-07-25T02:17:32.997Z,79.5
2018-07-25T02:18:33.715Z,79.1
2018-07-25T02:19:34.456Z,79.4
2018-07-25T02:20:35.174Z,79.0
2018-07-25T02:21:35.901Z,79.1
2018-07-25T02:22:36.642Z,78.8
2018-07-25T02:23:37.356Z,78.9
2018-07-25T02:24:38.090Z,77.9
2018-07-25T02:25:39.067Z,78.2
2018-07-25T02:26:39.792Z,78.6
2018-07-25T02:27:40.531Z,77.1
2018-07-25T02:28:41.247Z,77.6
2018-07-25T02:29:42.215Z,78.6
2018-07-25T02:30:42.943Z,77.0
2018-07-25T02:31:43.714Z,77.5
2018-07-25T02:32:44.433Z,77.6
2018-07-25T02:33:45.158Z,76.8
2018-07-25T02:34:45.873Z,76.3
2018-07-25T02:35:46.613Z,77.7
2018-07-25T02:36:47.329Z,77.6
2018-07-25T02:37:48.044Z,78.6
2018-07-25T02:38:48.778Z,77.8
2018-07-25T02:39:49.507Z,76.6
2018-07-25T02:40:50.214Z,76.2
2018-07-25T02:41:50.943Z,75.3
2018-07-25T02:42:51.666Z,74.7
2018-07-25T02:43:52.398Z,74.9
2018-07-25T02:44:53.127Z,74.2
2018-07-25T02:45:53.854Z,74.3
2018-07-25T02:46:54.586Z,74.3
2018-07-25T02:47:55.355Z,76.1
2018-07-25T02:48:56.067Z,75.5
2018-07-25T02:49:56.791Z,76.0
2018-07-25T02:50:57.521Z,75.6
2018-07-25T02:51:58.266Z,75.0
2018-07-25T02:52:59.036Z,74.5
2018-07-25T02:53:59.761Z,74.7
2018-07-25T02:55:00.488Z,73.9
2018-07-25T02:56:01.219Z,74.1
2018-07-25T02:57:01.987Z,72.6
2018-07-25T02:58:02.914Z,73.2
2018-07-25T02:59:03.631Z,73.0
2018-07-25T03:00:04.341Z,73.0
2018-07-25T03:01:05.066Z,73.6
2018-07-25T03:02:05.781Z,73.6
2018-07-25T03:03:06.504Z,73.4
2018-07-25T03:04:07.229Z,73.9
2018-07-25T03:05:07.967Z,73.6
2018-07-25T03:06:08.740Z,73.5
2018-07-25T03:07:09.481Z,73.8
2018-07-25T03:08:10.194Z,73.5
2018-07-25T03:09:10.974Z,72.5
2018-07-25T03:10:11.642Z,74.1
2018-07-25T03:11:12.427Z,73.5
2018-07-25T03:12:13.149Z,71.4
2018-07-25T03:13:13.940Z,71.0
2018-07-25T03:14:14.597Z,70.9
2018-07-25T03:15:15.327Z,71.3
2018-07-25T03:16:16.399Z,71.0
2018-07-25T03:17:17.132Z,71.6
2018-07-25T03:18:17.867Z,71.6
2018-07-25T03:19:18.601Z,71.5
2018-07-25T03:20:19.331Z,70.7
2018-07-25T03:21:20.105Z,71.0
2018-07-25T03:22:20.827Z,71.3
2018-07-25T03:23:21.562Z,71.1
2018-07-25T03:24:22.280Z,70.9
2018-07-25T03:25:23.030Z,70.8
2018-07-25T03:26:23.810Z,72.2
2018-07-25T03:27:24.782Z,70.5
2018-07-25T03:28:25.511Z,70.8
2018-07-25T03:29:26.221Z,69.8
2018-07-25T03:30:26.954Z,68.9
2018-07-25T03:31:27.682Z,68.7
2018-07-25T03:32:28.394Z,68.1
2018-07-25T03:33:29.113Z,66.9
2018-07-25T03:34:29.846Z,69.1
2018-07-25T03:35:30.570Z,69.8
2018-07-25T03:36:31.304Z,70.1
2018-07-25T03:37:32.298Z,69.6
2018-07-25T03:38:33.016Z,68.9
2018-07-25T03:39:33.999Z,70.3
2018-07-25T03:40:34.723Z,68.5
2018-07-25T03:41:35.448Z,68.9
2018-07-25T03:42:36.171Z,69.5
2018-07-25T03:43:36.902Z,69.4
2018-07-25T03:44:37.884Z,69.0
2018-07-25T03:45:38.597Z,68.9
2018-07-25T03:46:39.326Z,69.8
2018-07-25T03:47:40.046Z,69.3
2018-07-25T03:48:40.779Z,67.8
2018-07-25T03:49:41.515Z,66.0
2018-07-25T03:50:42.234Z,65.8
2018-07-25T03:51:42.961Z,65.8
2018-07-25T03:52:43.678Z,65.7
2018-07-25T03:53:44.404Z,65.7
2018-07-25T03:54:45.137Z,65.8
2018-07-25T03:55:45.863Z,66.6
2018-07-25T03:56:46.594Z,66.4
2018-07-25T03:57:47.372Z,66.1
2018-07-25T03:58:48.100Z,65.5
2018-07-25T03:59:49.077Z,65.6
2018-07-25T04:00:49.813Z,64.7
2018-07-25T04:01:50.598Z,64.5
2018-07-25T04:02:51.271Z,65.2
2018-07-25T04:03:52.003Z,65.4
2018-07-25T04:04:52.730Z,65.8
2018-07-25T04:05:53.454Z,66.1
2018-07-25T04:06:54.186Z,66.3
2018-07-25T04:07:54.907Z,66.4
2018-07-25T04:08:55.631Z,67.1
2018-07-25T04:09:56.373Z,67.0
2018-07-25T04:10:57.092Z,67.8
2018-07-25T04:11:57.821Z,67.1
2018-07-25T04:12:58.793Z,67.6
2018-07-25T04:13:59.521Z,68.5
2018-07-25T04:15:00.251Z,66.0
2018-07-25T04:16:00.976Z,65.3
2018-07-25T04:17:01.701Z,67.8
2018-07-25T04:18:02.448Z,68.5
2018-07-25T04:19:03.177Z,69.0
2018-07-25T04:20:03.898Z,68.1
2018-07-25T04:21:04.637Z,66.4
2018-07-25T04:22:05.369Z,67.3
2018-07-25T04:23:06.103Z,67.8
2018-07-25T04:24:06.834Z,67.7
2018-07-25T04:25:07.818Z,68.6
2018-07-25T04:26:08.551Z,67.8
2018-07-25T04:27:09.277Z,68.5
2018-07-25T04:28:10.055Z,68.9
2018-07-25T04:29:10.794Z,67.0
2018-07-25T04:30:11.526Z,67.3
2018-07-25T04:31:12.244Z,68.5
2018-07-25T04:32:12.978Z,67.7
2018-07-25T04:33:13.774Z,68.4
2018-07-25T04:34:14.507Z,68.9
2018-07-25T04:35:15.234Z,71.1
2018-07-25T04:36:15.967Z,72.8
2018-07-25T04:37:16.696Z,72.6
2018-07-25T04:38:17.788Z,72.5
2018-07-25T04:39:18.535Z,73.5
2018-07-25T04:40:19.273Z,73.6
2018-07-25T04:41:20.016Z,72.8
2018-07-25T04:42:20.734Z,71.1
2018-07-25T04:43:21.464Z,70.9
2018-07-25T04:44:22.471Z,71.7
2018-07-25T04:45:23.171Z,72.7
2018-07-25T04:46:23.999Z,71.9
2018-07-25T04:47:24.633Z,72.6
2018-07-25T04:48:25.363Z,72.7
2018-07-25T04:49:26.095Z,71.7
2018-07-25T04:50:26.828Z,72.8
2018-07-25T04:51:27.564Z,72.8
2018-07-25T04:52:28.294Z,73.1
2018-07-25T04:53:29.068Z,73.6
2018-07-25T04:54:29.796Z,74.7
2018-07-25T04:55:30.778Z,74.1
2018-07-25T04:56:31.517Z,74.2
2018-07-25T04:57:32.239Z,74.4
2018-07-25T04:58:33.319Z,73.7
2018-07-25T04:59:34.052Z,72.9
2018-07-25T05:00:34.789Z,72.6
2018-07-25T05:01:35.533Z,73.7
2018-07-25T05:02:36.254Z,73.2
2018-07-25T05:03:36.977Z,72.9
2018-07-25T05:04:37.707Z,73.6
2018-07-25T05:05:38.443Z,73.3
2018-07-25T05:06:39.164Z,74.2
2018-07-25T05:07:39.913Z,74.5
2018-07-25T05:08:40.638Z,75.1
2018-07-25T05:09:41.374Z,74.8
2018-07-25T05:10:42.093Z,75.4
2018-07-25T05:11:43.191Z,76.5
2018-07-25T05:12:44.178Z,76.1
2018-07-25T05:13:45.682Z,76.1
2018-07-25T05:14:46.791Z,76.5
2018-07-25T05:15:47.529Z,78.1
2018-07-25T05:16:48.260Z,78.4
2018-07-25T05:17:49.002Z,79.1
2018-07-25T05:18:49.971Z,79.3
2018-07-25T05:19:50.697Z,79.4
2018-07-25T05:20:51.682Z,79.5
2018-07-25T05:21:52.404Z,80.8
2018-07-25T05:22:53.286Z,82.2
2018-07-25T05:23:54.108Z,83.1
2018-07-25T05:24:55.090Z,83.3
2018-07-25T05:25:56.071Z,83.7
2018-07-25T05:26:56.789Z,86.8
2018-07-25T05:27:58.201Z,87.5
2018-07-25T05:28:58.974Z,88.0
2018-07-25T05:30:00.265Z,87.8
2018-07-25T05:31:00.944Z,88.9
2018-07-25T05:32:01.676Z,90.4
2018-07-25T05:33:02.462Z,90.2
2018-07-25T05:34:03.597Z,90.5
2018-07-25T05:35:04.417Z,88.8
2018-07-25T05:36:05.657Z,89.5
2018-07-25T05:37:06.755Z,89.0
2018-07-25T05:38:07.627Z,88.5
2018-07-25T05:39:08.436Z,88.2
2018-07-25T05:40:09.357Z,87.8
2018-07-25T05:41:10.646Z,88.7
2018-07-25T05:42:11.861Z,89.3
2018-07-25T05:43:12.672Z,89.3
2018-07-25T05:44:13.414Z,89.1
2018-07-25T05:45:14.137Z,89.7
2018-07-25T05:46:15.427Z,90.0
2018-07-25T05:47:16.287Z,90.9
2018-07-25T05:48:17.477Z,91.3
2018-07-25T05:49:18.202Z,93.0
2018-07-25T05:50:18.938Z,93.5
2018-07-25T05:51:20.193Z,92.9
2018-07-25T05:52:21.061Z,93.8
2018-07-25T05:53:21.810Z,94.5
2018-07-25T05:54:22.532Z,93.1
2018-07-25T05:55:23.266Z,93.5
2018-07-25T05:56:23.997Z,93.4
2018-07-25T05:57:24.730Z,94.1
2018-07-25T05:58:25.467Z,95.0
2018-07-25T05:59:26.203Z,95.8
2018-07-25T06:00:27.182Z,95.8
2018-07-25T06:01:28.174Z,97.2
2018-07-25T06:02:28.921Z,96.9
2018-07-25T06:03:29.702Z,96.8
2018-07-25T06:04:30.432Z,97.3
2018-07-25T06:05:31.169Z,97.2
2018-07-25T06:06:31.893Z,96.9
2018-07-25T06:07:32.622Z,97.2
2018-07-25T06:08:33.366Z,99.3
2018-07-25T06:09:34.148Z,98.2
2018-07-25T06:10:34.897Z,97.7
2018-07-25T06:11:35.621Z,96.6
2018-07-25T06:12:36.345Z,97.3
2018-07-25T06:13:37.078Z,99.1
2018-07-25T06:14:37.808Z,96.8
2018-07-25T06:15:38.543Z,96.7
2018-07-25T06:16:39.316Z,96.6
2018-07-25T06:17:40.091Z,97.3
2018-07-25T06:18:40.797Z,97.8
2018-07-25T06:19:41.848Z,96.8
2018-07-25T06:20:42.660Z,97.4
2018-07-25T06:21:43.362Z,96.5
2018-07-25T06:22:44.097Z,96.5
2018-07-25T06:23:44.827Z,95.9
2018-07-25T06:24:45.814Z,96.7
2018-07-25T06:25:46.538Z,96.7
2018-07-25T06:26:47.317Z,96.8
2018-07-25T06:27:48.058Z,96.9
2018-07-25T06:28:48.794Z,97.0
2018-07-25T06:29:49.533Z,96.5
2018-07-25T06:30:50.264Z,97.4
2018-07-25T06:31:51.004Z,98.0
2018-07-25T06:32:51.737Z,99.3
2018-07-25T06:33:52.831Z,99.4
2018-07-25T06:34:53.638Z,99.5
2018-07-25T06:35:54.277Z,99.3
2018-07-25T06:36:55.021Z,99.6
2018-07-25T06:37:55.813Z,100.0
2018-07-25T06:38:56.505Z,100.0
2018-07-25T06:39:57.235Z,99.4
2018-07-25T06:40:57.992Z,100.0
2018-07-25T06:41:58.717Z,100.0
2018-07-25T06:42:59.705Z,100.0
2018-07-25T06:44:00.432Z,100.0
2018-07-25T06:45:01.159Z,100.0
2018-07-25T06:46:01.889Z,100.0
2018-07-25T06:47:02.627Z,100.0
2018-07-25T06:48:03.407Z,100.0
2018-07-25T06:49:04.483Z,100.0
2018-07-25T06:50:05.210Z,100.0
2018-07-25T06:51:05.963Z,100.0
2018-07-25T06:52:06.689Z,100.0
2018-07-25T06:53:07.437Z,100.0
2018-07-25T06:54:08.172Z,100.0
2018-07-25T06:55:08.909Z,100.0
2018-07-25T06:56:09.639Z,100.0
2018-07-25T06:57:10.470Z,100.0
2018-07-25T06:58:11.169Z,100.0
2018-07-25T06:59:12.170Z,98.5
2018-07-25T07:00:12.894Z,97.4
2018-07-25T07:01:13.632Z,97.6
2018-07-25T07:02:14.349Z,98.4
2018-07-25T07:03:15.080Z,98.5
2018-07-25T07:04:15.824Z,98.0
2018-07-25T07:05:16.564Z,97.7
2018-07-25T07:06:17.295Z,96.4
2018-07-25T07:07:18.039Z,95.2
2018-07-25T07:08:18.800Z,96.1
2018-07-25T07:09:19.808Z,96.3
2018-07-25T07:10:20.533Z,95.0
2018-07-25T07:11:21.570Z,95.1
2018-07-25T07:12:22.563Z,93.9
2018-07-25T07:13:23.330Z,93.3
2018-07-25T07:14:24.068Z,92.8
2018-07-25T07:15:24.809Z,93.5
2018-07-25T07:16:25.543Z,96.0
2018-07-25T07:17:26.325Z,94.7
2018-07-25T07:18:27.020Z,91.7
2018-07-25T07:19:27.752Z,87.0
2018-07-25T07:20:28.485Z,85.3
2018-07-25T07:21:29.217Z,85.8
2018-07-25T07:22:29.996Z,84.4
2018-07-25T07:23:30.723Z,85.9
2018-07-25T07:24:31.473Z,88.5
2018-07-25T07:25:32.204Z,89.4
2018-07-25T07:26:32.948Z,86.5
2018-07-25T07:27:34.490Z,83.1
2018-07-25T07:28:35.220Z,79.6
2018-07-25T07:29:35.969Z,81.8
2018-07-25T07:30:36.707Z,83.2
2018-07-25T07:31:37.447Z,80.9
2018-07-25T07:32:38.193Z,79.4
2018-07-25T07:33:38.931Z,77.1
2018-07-25T07:34:39.662Z,77.6
2018-07-25T07:35:40.393Z,77.4
2018-07-25T07:36:41.165Z,71.8
2018-07-25T07:37:41.900Z,66.0
2018-07-25T07:38:42.674Z,66.7
2018-07-25T07:39:43.402Z,66.0
2018-07-25T07:40:44.143Z,64.7
2018-07-25T07:41:44.878Z,62.0
2018-07-25T07:42:45.612Z,62.5
2018-07-25T07:43:46.404Z,62.2
2018-07-25T07:44:47.137Z,63.5
2018-07-25T07:45:47.876Z,65.1
2018-07-25T07:46:48.609Z,57.1
2018-07-25T07:47:49.355Z,56.6
2018-07-25T07:48:50.134Z,56.7
2018-07-25T07:49:50.873Z,56.1
2018-07-25T07:50:51.604Z,55.4
2018-07-25T07:51:52.337Z,53.3
2018-07-25T07:52:53.318Z,54.8
2018-07-25T07:53:54.451Z,52.6
2018-07-25T07:54:55.156Z,51.3
2018-07-25T07:55:55.904Z,48.4
2018-07-25T07:56:56.644Z,48.9
2018-07-25T07:57:57.387Z,48.7
2018-07-25T07:58:58.135Z,48.5
2018-07-25T07:59:58.880Z,46.9
2018-07-25T08:00:59.620Z,46.0
2018-07-25T08:02:00.360Z,45.7
2018-07-25T08:03:01.099Z,44.4
2018-07-25T08:04:01.827Z,44.1
2018-07-25T08:05:02.824Z,41.5
2018-07-25T08:06:03.613Z,41.2
2018-07-25T08:07:04.610Z,41.1
2018-07-25T08:08:05.336Z,41.7
2018-07-25T08:09:06.080Z,41.5
2018-07-25T08:10:06.809Z,39.4
2018-07-25T08:11:07.589Z,39.2
2018-07-25T08:12:08.330Z,40.1
2018-07-25T08:13:09.072Z,39.2
2018-07-25T08:14:09.808Z,39.5
2018-07-25T08:15:10.559Z,41.7
2018-07-25T08:16:11.662Z,41.1
2018-07-25T08:17:12.464Z,38.6
2018-07-25T08:18:13.209Z,39.1
2018-07-25T08:19:14.207Z,42.9
2018-07-25T08:20:15.190Z,43.7
2018-07-25T08:21:16.236Z,42.6
2018-07-25T08:22:16.922Z,39.9
2018-07-25T08:23:17.661Z,38.9
2018-07-25T08:24:18.444Z,39.6
2018-07-25T08:25:19.189Z,38.6
2018-07-25T08:26:19.925Z,38.6
2018-07-25T08:27:20.669Z,38.3
2018-07-25T08:28:21.410Z,39.1
2018-07-25T08:29:22.154Z,38.4
2018-07-25T08:30:22.883Z,38.0
2018-07-25T08:31:23.674Z,37.7
2018-07-25T08:32:24.414Z,37.4
2018-07-25T08:33:25.151Z,37.7
2018-07-25T08:34:25.944Z,35.1
2018-07-25T08:35:26.625Z,35.1
2018-07-25T08:36:27.374Z,35.8
2018-07-25T08:37:28.120Z,35.9
2018-07-25T08:38:28.855Z,35.8
2018-07-25T08:39:29.605Z,34.2
2018-07-25T08:40:30.354Z,34.6
2018-07-25T08:41:31.111Z,34.6
2018-07-25T08:42:31.835Z,34.3
2018-07-25T08:43:32.563Z,35.2
2018-07-25T08:44:33.323Z,37.0
2018-07-25T08:45:34.074Z,35.9
2018-07-25T08:46:34.817Z,36.3
2018-07-25T08:47:35.564Z,35.4
2018-07-25T08:48:36.358Z,36.7
2018-07-25T08:49:37.117Z,37.1
2018-07-25T08:50:37.860Z,37.7
2018-07-25T08:51:38.598Z,36.3
2018-07-25T08:52:39.354Z,35.1
2018-07-25T08:53:40.077Z,33.8
2018-07-25T08:54:41.083Z,33.5
2018-07-25T08:55:41.825Z,33.3
2018-07-25T08:56:42.833Z,33.2
2018-07-25T08:57:43.589Z,31.9
2018-07-25T08:58:44.308Z,32.4
2018-07-25T08:59:45.057Z,34.1
2018-07-25T09:00:45.788Z,33.3
2018-07-25T09:01:46.557Z,34.5
2018-07-25T09:02:47.281Z,34.6
2018-07-25T09:03:48.015Z,34.6
2018-07-25T09:04:48.814Z,33.5
2018-07-25T09:05:49.800Z,33.4
2018-07-25T09:06:50.543Z,32.7
2018-07-25T09:07:51.295Z,32.2
2018-07-25T09:08:52.045Z,32.5
2018-07-25T09:09:52.790Z,32.9
2018-07-25T09:10:53.538Z,33.1
2018-07-25T09:11:54.276Z,31.8
2018-07-25T09:12:55.060Z,31.5
2018-07-25T09:13:55.775Z,32.6
2018-07-25T09:14:56.516Z,33.8
2018-07-25T09:15:57.252Z,32.8
2018-07-25T09:16:58.050Z,32.0
2018-07-25T09:17:58.737Z,31.9
2018-07-25T09:18:59.480Z,31.8
2018-07-25T09:20:00.198Z,31.7
2018-07-25T09:21:00.945Z,31.7
2018-07-25T09:22:01.691Z,31.9
2018-07-25T09:23:02.432Z,30.9
2018-07-25T09:24:03.189Z,30.8
2018-07-25T09:25:03.961Z,30.9
2018-07-25T09:26:04.681Z,31.5
2018-07-25T09:27:05.466Z,32.5
2018-07-25T09:28:06.221Z,33.5
2018-07-25T09:29:06.978Z,34.0
2018-07-25T09:30:07.719Z,31.5
2018-07-25T09:31:08.454Z,31.9
2018-07-25T09:32:09.248Z,33.2
2018-07-25T09:33:09.989Z,34.5
2018-07-25T09:34:10.832Z,32.0
2018-07-25T09:35:11.465Z,32.2
2018-07-25T09:36:12.204Z,32.8
2018-07-25T09:37:12.956Z,33.4
2018-07-25T09:38:13.698Z,31.9
2018-07-25T09:39:14.469Z,31.9
2018-07-25T09:40:15.208Z,31.7
2018-07-25T09:41:15.958Z,31.6
2018-07-25T09:42:16.699Z,32.5
2018-07-25T09:43:17.450Z,32.7
2018-07-25T09:44:18.185Z,31.6
2018-07-25T09:45:18.986Z,32.9
2018-07-25T09:46:19.767Z,30.8
2018-07-25T09:47:20.457Z,30.2
2018-07-25T09:48:21.193Z,30.8
2018-07-25T09:49:21.935Z,31.9
2018-07-25T09:50:23.013Z,31.0
2018-07-25T09:51:23.760Z,31.1
2018-07-25T09:52:24.511Z,31.9
2018-07-25T09:53:25.272Z,32.0
2018-07-25T09:54:26.004Z,33.8
2018-07-25T09:55:26.782Z,33.7
2018-07-25T09:56:27.535Z,36.3
2018-07-25T09:57:28.273Z,36.6
2018-07-25T09:58:29.025Z,36.5
2018-07-25T09:59:29.762Z,36.6
2018-07-25T10:00:30.508Z,38.5
2018-07-25T10:01:31.250Z,39.3
2018-07-25T10:02:32.528Z,39.6
2018-07-25T10:03:33.261Z,40.1
2018-07-25T10:04:34.008Z,39.1
2018-07-25T10:05:34.776Z,39.9
2018-07-25T10:06:35.855Z,41.3
2018-07-25T10:07:36.636Z,44.5
2018-07-25T10:08:37.375Z,45.4
2018-07-25T10:09:38.198Z,45.3
2018-07-25T10:10:39.044Z,46.0
2018-07-25T10:11:39.784Z,46.2
2018-07-25T10:12:40.549Z,46.3
2018-07-25T10:13:41.294Z,46.9
2018-07-25T10:14:42.031Z,47.3
2018-07-25T10:15:42.774Z,48.6
2018-07-25T10:16:43.518Z,48.6
2018-07-25T10:17:44.268Z,48.4
2018-07-25T10:18:45.011Z,49.4
2018-07-25T10:19:45.744Z,49.5
2018-07-25T10:20:46.600Z,50.8
2018-07-25T10:21:47.652Z,50.6
2018-07-25T10:22:48.399Z,50.5
2018-07-25T10:23:49.129Z,50.6
2018-07-25T10:24:49.892Z,50.5
2018-07-25T10:25:50.716Z,50.4
2018-07-25T10:26:51.449Z,50.6
2018-07-25T10:27:52.172Z,50.0
2018-07-25T10:28:52.921Z,49.9
2018-07-25T10:29:53.681Z,49.2
2018-07-25T10:30:54.421Z,46.5
2018-07-25T10:31:55.213Z,42.1
2018-07-25T10:32:56.006Z,42.5
2018-07-25T10:33:56.701Z,37.5
2018-07-25T10:34:57.443Z,42.2
2018-07-25T10:35:58.175Z,43.9
2018-07-25T10:36:58.934Z,41.7
2018-07-25T10:37:59.662Z,38.2
2018-07-25T10:39:00.446Z,37.7
2018-07-25T10:40:01.157Z,36.1
2018-07-25T10:41:02.297Z,34.1
2018-07-25T10:42:03.148Z,33.5
2018-07-25T10:43:03.916Z,32.1
2018-07-25T10:44:04.731Z,31.5
2018-07-25T10:45:05.457Z,30.5
2018-07-25T10:46:06.197Z,30.1
2018-07-25T10:47:07.140Z,30.9
2018-07-25T10:48:07.862Z,31.9
2018-07-25T10:49:08.626Z,31.2
2018-07-25T10:50:09.371Z,29.7
2018-07-25T10:51:10.116Z,30.8
2018-07-25T10:52:11.203Z,30.5
2018-07-25T10:53:11.940Z,29.7
2018-07-25T10:54:12.680Z,31.5
2018-07-25T10:55:13.681Z,29.3
2018-07-25T10:56:14.442Z,28.7
2018-07-25T10:57:15.235Z,29.4
2018-07-25T10:58:16.005Z,30.1
2018-07-25T10:59:16.747Z,31.4
2018-07-25T11:00:17.488Z,29.8
2018-07-25T11:01:18.228Z,28.0
2018-07-25T11:02:19.025Z,27.7
2018-07-25T11:03:19.828Z,26.9
2018-07-25T11:04:20.541Z,27.0
2018-07-25T11:05:21.299Z,27.7
2018-07-25T11:06:22.053Z,26.6
2018-07-25T11:07:22.791Z,25.0
2018-07-25T11:08:23.558Z,24.6
2018-07-25T11:09:24.286Z,25.3
2018-07-25T11:10:25.040Z,26.5
2018-07-25T11:11:26.032Z,26.9
2018-07-25T11:12:26.776Z,26.8
2018-07-25T11:13:27.518Z,27.8
2018-07-25T11:14:28.267Z,27.3
2018-07-25T11:15:29.022Z,25.5
2018-07-25T11:16:29.789Z,25.9
2018-07-25T11:17:30.856Z,28.0
2018-07-25T11:18:31.595Z,27.3
2018-07-25T11:19:32.344Z,27.6
2018-07-25T11:20:33.082Z,27.4
2018-07-25T11:21:33.814Z,28.7
2018-07-25T11:22:34.611Z,28.4
2018-07-25T11:23:35.356Z,28.4
2018-07-25T11:24:36.115Z,29.0
2018-07-25T11:25:36.867Z,28.9
2018-07-25T11:26:37.603Z,28.9
2018-07-25T11:27:38.606Z,29.5
2018-07-25T11:28:39.342Z,30.8
2018-07-25T11:29:40.100Z,30.5
2018-07-25T11:30:40.839Z,28.6
2018-07-25T11:31:41.578Z,30.0
2018-07-25T11:32:42.371Z,30.3
2018-07-25T11:33:43.082Z,30.5
2018-07-25T11:34:43.810Z,31.0
2018-07-25T11:35:44.600Z,30.6
2018-07-25T11:36:45.340Z,30.8
2018-07-25T11:37:46.558Z,32.0
2018-07-25T11:38:47.610Z,31.9
2018-07-25T11:39:48.381Z,31.7
2018-07-25T11:40:49.147Z,31.9
2018-07-25T11:41:49.885Z,32.4
2018-07-25T11:42:50.644Z,32.8
2018-07-25T11:43:51.379Z,33.5
2018-07-25T11:44:52.167Z,37.1
2018-07-25T11:45:52.906Z,34.5
2018-07-25T11:46:53.640Z,34.4
2018-07-25T11:47:54.631Z,35.2
2018-07-25T11:48:55.381Z,35.8
2018-07-25T11:49:56.216Z,34.7
2018-07-25T11:50:56.942Z,34.8
2018-07-25T11:51:57.696Z,37.2
2018-07-25T11:52:58.464Z,36.5
2018-07-25T11:53:59.221Z,38.0
2018-07-25T11:55:00.057Z,37.9
2018-07-25T11:56:00.939Z,34.2
2018-07-25T11:57:01.680Z,35.9
2018-07-25T11:58:02.708Z,35.5
2018-07-25T11:59:03.437Z,37.9
2018-07-25T12:00:04.421Z,36.7
2018-07-25T12:01:05.171Z,38.6
2018-07-25T12:02:05.900Z,39.6
2018-07-25T12:03:06.654Z,38.7
2018-07-25T12:04:07.740Z,33.2
2018-07-25T12:05:08.521Z,32.9
2018-07-25T12:06:09.252Z,35.8
2018-07-25T12:07:09.996Z,36.2
2018-07-25T12:08:10.732Z,33.2
2018-07-25T12:09:11.480Z,32.0
2018-07-25T12:10:12.219Z,32.5
2018-07-25T12:11:12.967Z,34.4
2018-07-25T12:12:13.695Z,37.7
2018-07-25T12:13:14.448Z,34.6
2018-07-25T12:14:15.190Z,31.6
2018-07-25T12:15:15.930Z,30.3
2018-07-25T12:16:16.671Z,32.3
2018-07-25T12:17:17.463Z,32.3
2018-07-25T12:18:18.587Z,31.7
2018-07-25T12:19:19.331Z,30.2
2018-07-25T12:20:20.071Z,30.6
2018-07-25T12:21:20.836Z,31.2
2018-07-25T12:22:21.604Z,31.7
2018-07-25T12:23:22.348Z,31.7
2018-07-25T12:24:23.088Z,30.4
2018-07-25T12:25:23.836Z,30.4
2018-07-25T12:26:25.444Z,31.6
2018-07-25T12:27:26.587Z,31.8
2018-07-25T12:28:27.453Z,32.0
2018-07-25T12:29:28.188Z,32.0
2018-07-25T12:30:28.947Z,31.8
2018-07-25T12:31:29.684Z,30.0
2018-07-25T12:32:30.420Z,28.3
2018-07-25T12:33:31.249Z,29.2
2018-07-25T12:34:32.005Z,28.8
2018-07-25T12:35:32.736Z,28.4
2018-07-25T12:36:33.768Z,27.3
2018-07-25T12:37:34.534Z,27.5
2018-07-25T12:38:35.276Z,28.1
2018-07-25T12:39:36.018Z,27.5
2018-07-25T12:40:36.772Z,27.1
2018-07-25T12:41:37.537Z,26.8
2018-07-25T12:42:38.269Z,26.8
2018-07-25T12:43:39.019Z,27.8
2018-07-25T12:44:39.766Z,28.0
2018-07-25T12:45:40.516Z,28.0
2018-07-25T12:46:41.267Z,27.8
2018-07-25T12:47:42.057Z,27.8
2018-07-25T12:48:42.793Z,27.8
2018-07-25T12:49:43.589Z,27.7
2018-07-25T12:50:44.338Z,28.3
2018-07-25T12:51:45.095Z,28.8
2018-07-25T12:52:45.830Z,28.5
2018-07-25T12:53:46.654Z,28.4
2018-07-25T12:54:47.340Z,28.3
2018-07-25T12:55:48.088Z,28.1
2018-07-25T12:56:48.839Z,28.6
2018-07-25T12:57:49.638Z,28.5
2018-07-25T12:58:50.369Z,27.8
2018-07-25T12:59:51.109Z,26.5
2018-07-25T13:00:51.842Z,26.8
2018-07-25T13:01:52.596Z,27.7
2018-07-25T13:02:54.088Z,28.5
2018-07-25T13:03:54.781Z,29.7
2018-07-25T13:04:55.524Z,30.8
2018-07-25T13:05:56.259Z,31.0
2018-07-25T13:06:57.014Z,31.2
2018-07-25T13:07:57.795Z,32.2
2018-07-25T13:08:58.534Z,31.5
2018-07-25T13:09:59.357Z,32.0
2018-07-25T13:11:00.098Z,32.0
2018-07-25T13:12:00.855Z,32.1
2018-07-25T13:13:01.849Z,32.8
2018-07-25T13:14:02.614Z,33.6
2018-07-25T13:15:03.708Z,34.3
2018-07-25T13:16:05.022Z,34.8
2018-07-25T13:17:06.246Z,33.3
2018-07-25T13:18:08.024Z,34.5
2018-07-25T13:19:08.763Z,34.0
2018-07-25T13:20:09.511Z,34.5
2018-07-25T13:21:10.254Z,36.4
2018-07-25T13:22:10.993Z,36.7
2018-07-25T13:23:11.824Z,37.0
2018-07-25T13:24:12.594Z,37.3
2018-07-25T13:25:13.378Z,37.8
2018-07-25T13:26:14.115Z,38.6
2018-07-25T13:27:14.908Z,37.5
2018-07-25T13:28:15.664Z,34.9